Time;durP1;ratioP1;P1;durP2;ratioP2;P2;SDS_P1;SDS_P2;PMS_P1;PMS_P2;Temp;Humidity;BMP_temperature;BMP_pressure;BME280_temperature;BME280_humidity;BME280_pressure;Samples;Min_cycle;Max_cycle;Signal;HPM_P1;HPM_P2
2022/09/27 00:00:26;;;;;;;5.45;1.00;;;9.30;99.90;;;;;;5105588;27;20035;-84
2022/09/27 00:02:52;;;;;;;8.38;1.23;;;9.20;99.90;;;;;;5128858;27;20076;-81
2022/09/27 00:05:17;;;;;;;15.65;1.10;;;9.20;99.90;;;;;;5124195;27;20035;-81
2022/09/27 00:07:44;;;;;;;11.98;1.75;;;9.30;99.90;;;;;;5122257;27;20043;-81
2022/09/27 00:10:11;;;;;;;11.45;1.83;;;9.20;99.90;;;;;;5078308;28;20047;-81
2022/09/27 00:12:37;;;;;;;11.02;1.33;;;9.20;99.90;;;;;;5124052;27;20047;-81
2022/09/27 00:15:03;;;;;;;10.15;1.63;;;9.10;99.90;;;;;;5094873;27;20081;-81
2022/09/27 00:17:29;;;;;;;8.32;1.35;;;9.10;99.90;;;;;;5108958;27;20121;-82
2022/09/27 00:19:58;;;;;;;7.68;1.55;;;9.10;99.90;;;;;;5108409;27;20455;-82
2022/09/27 00:22:24;;;;;;;6.82;1.35;;;9.10;99.90;;;;;;5112793;27;20054;-81
2022/09/27 00:24:50;;;;;;;8.00;1.00;;;9.10;99.90;;;;;;5109428;27;20042;-81
2022/09/27 00:27:17;;;;;;;10.05;1.35;;;9.10;99.90;;;;;;5125684;27;20122;-82
2022/09/27 00:29:44;;;;;;;8.00;1.33;;;9.10;99.90;;;;;;5088729;27;20157;-81
2022/09/27 00:32:10;;;;;;;9.50;1.42;;;9.10;99.90;;;;;;5106412;27;20039;-81
2022/09/27 00:34:36;;;;;;;10.23;1.10;;;9.00;99.90;;;;;;5118903;27;20616;-80
2022/09/27 00:37:02;;;;;;;9.90;1.55;;;9.20;99.90;;;;;;5106758;27;20047;-80
2022/09/27 00:39:28;;;;;;;6.25;1.20;;;9.20;99.90;;;;;;5129802;27;20057;-80
2022/09/27 00:41:54;;;;;;;6.30;0.90;;;9.10;99.90;;;;;;5127415;27;20053;-80
2022/09/27 00:44:32;;;;;;;7.65;1.30;;;9.10;99.90;;;;;;5099974;27;20059;-81
2022/09/27 00:47:09;;;;;;;5.72;0.80;;;9.20;99.90;;;;;;5125296;27;20042;-80
2022/09/27 00:49:37;;;;;;;4.47;1.45;;;9.10;99.90;;;;;;5125614;27;20038;-81
2022/09/27 00:52:08;;;;;;;13.00;1.88;;;9.10;99.90;;;;;;5105678;27;20042;-81
2022/09/27 00:54:39;;;;;;;7.05;1.85;;;9.10;99.90;;;;;;5122266;27;20112;-81
2022/09/27 00:57:11;;;;;;;10.23;1.73;;;9.00;99.90;;;;;;5106817;27;20567;-81
2022/09/27 00:59:51;;;;;;;9.25;1.02;;;9.00;99.90;;;;;;5120792;27;20073;-80
2022/09/27 01:02:17;;;;;;;11.65;1.40;;;9.10;99.90;;;;;;5123879;27;20213;-81
2022/09/27 01:04:44;;;;;;;11.38;0.85;;;9.10;99.90;;;;;;5110275;27;20042;-80
2022/09/27 01:07:10;;;;;;;6.82;1.77;;;9.10;99.90;;;;;;5110320;27;20043;-80
2022/09/27 01:09:36;;;;;;;4.90;1.00;;;9.10;99.90;;;;;;5107432;27;20402;-80
2022/09/27 01:12:31;;;;;;;11.18;2.08;;;9.10;99.90;;;;;;5109392;27;20054;-80
2022/09/27 01:15:35;;;;;;;8.15;1.05;;;9.00;99.90;;;;;;5126953;27;20051;-80
2022/09/27 01:18:37;;;;;;;8.07;0.95;;;9.00;99.90;;;;;;5110317;27;20130;-80
2022/09/27 01:21:07;;;;;;;4.78;0.70;;;9.00;99.90;;;;;;5101101;27;20451;-80
2022/09/27 01:23:48;;;;;;;5.68;1.00;;;9.00;99.90;;;;;;5128842;27;20050;-80
2022/09/27 01:26:36;;;;;;;15.75;1.13;;;9.00;99.90;;;;;;5125094;27;20082;-81
2022/09/27 01:29:20;;;;;;;8.80;0.85;;;8.90;99.90;;;;;;5095763;27;20057;-81
2022/09/27 01:32:05;;;;;;;9.27;1.33;;;8.90;99.90;;;;;;5122623;27;20063;-81
2022/09/27 01:34:46;;;;;;;5.53;1.00;;;8.80;99.90;;;;;;5126050;27;20749;-81
2022/09/27 01:37:40;;;;;;;6.50;0.80;;;8.90;99.90;;;;;;5117703;27;20043;-80
2022/09/27 01:40:19;;;;;;;12.00;1.00;;;8.90;99.90;;;;;;5119376;27;20519;-81
2022/09/27 01:42:57;;;;;;;7.07;1.10;;;8.90;99.90;;;;;;5126603;27;20086;-81
2022/09/27 01:45:32;;;;;;;8.15;1.10;;;8.90;99.90;;;;;;5117420;27;20462;-81
2022/09/27 01:48:09;;;;;;;12.70;1.50;;;9.00;99.90;;;;;;5117550;27;20046;-80
2022/09/27 01:50:46;;;;;;;8.15;0.95;;;9.00;99.90;;;;;;5120590;27;20041;-80
2022/09/27 01:53:20;;;;;;;5.50;0.73;;;9.00;99.90;;;;;;5128186;27;20088;-80
2022/09/27 01:55:50;;;;;;;8.48;0.93;;;9.00;99.90;;;;;;5109806;27;20045;-79
2022/09/27 01:58:32;;;;;;;11.77;1.17;;;9.00;99.90;;;;;;5120206;27;20042;-80
2022/09/27 02:00:59;;;;;;;4.35;0.85;;;9.00;99.90;;;;;;5110688;27;20446;-80
2022/09/27 02:03:36;;;;;;;7.10;0.80;;;9.10;99.90;;;;;;5126836;27;20122;-80
2022/09/27 02:06:28;;;;;;;5.63;0.90;;;9.10;99.90;;;;;;5127330;27;20046;-80
2022/09/27 02:08:59;;;;;;;6.47;0.60;;;9.10;99.90;;;;;;5133095;27;20112;-80
2022/09/27 02:11:26;;;;;;;7.68;1.05;;;9.10;99.90;;;;;;5105149;27;20039;-80
2022/09/27 02:14:17;;;;;;;4.43;1.00;;;9.20;99.90;;;;;;5088900;28;20427;-78
2022/09/27 02:16:57;;;;;;;8.98;1.23;;;9.10;99.90;;;;;;5107626;27;20047;-80
2022/09/27 02:19:53;;;;;;;3.85;1.10;;;9.10;99.90;;;;;;5131105;27;20051;-81
2022/09/27 02:22:31;;;;;;;9.95;1.08;;;9.10;99.90;;;;;;5112146;27;20075;-81
2022/09/27 02:25:34;;;;;;;7.93;0.80;;;9.20;99.90;;;;;;5105082;27;20079;-79
2022/09/27 02:28:23;;;;;;;6.22;1.00;;;9.20;99.90;;;;;;5057937;28;20051;-79
2022/09/27 02:30:49;;;;;;;6.95;0.93;;;9.10;99.90;;;;;;5127201;27;20051;-80
2022/09/27 02:33:15;;;;;;;10.98;1.48;;;9.10;99.90;;;;;;5123679;27;20054;-80
2022/09/27 02:35:41;;;;;;;8.05;1.00;;;9.20;99.90;;;;;;5073367;27;20121;-80
2022/09/27 02:38:07;;;;;;;8.25;2.08;;;9.10;99.90;;;;;;5102685;27;20127;-80
2022/09/27 02:40:36;;;;;;;8.15;1.33;;;9.10;99.90;;;;;;5123117;27;20488;-81
2022/09/27 02:43:03;;;;;;;5.32;1.17;;;9.10;99.90;;;;;;5102650;27;20074;-80
2022/09/27 02:45:49;;;;;;;4.68;0.90;;;9.10;99.90;;;;;;5121334;27;20545;-80
2022/09/27 02:48:48;;;;;;;9.55;1.48;;;9.00;99.90;;;;;;5128926;27;20046;-80
2022/09/27 02:51:34;;;;;;;8.55;0.90;;;9.00;99.90;;;;;;5117928;27;20051;-83
2022/09/27 02:54:19;;;;;;;9.30;1.50;;;9.00;99.90;;;;;;5130569;27;20039;-80
2022/09/27 02:57:20;;;;;;;10.50;1.10;;;9.00;99.90;;;;;;5110187;27;20130;-81
2022/09/27 03:00:07;;;;;;;4.20;0.80;;;9.00;99.90;;;;;;5104331;27;20070;-81
2022/09/27 03:02:45;;;;;;;6.97;0.93;;;9.00;99.90;;;;;;5118515;27;20481;-80
2022/09/27 03:05:19;;;;;;;5.65;0.88;;;9.00;99.90;;;;;;5123013;27;20035;-80
2022/09/27 03:07:46;;;;;;;6.63;0.60;;;8.90;99.90;;;;;;5107424;27;20133;-81
2022/09/27 03:10:17;;;;;;;5.13;0.65;;;8.80;99.90;;;;;;5101366;28;20036;-81
2022/09/27 03:12:43;;;;;;;8.43;0.82;;;8.80;99.90;;;;;;5099569;27;20042;-81
2022/09/27 03:15:09;;;;;;;9.48;0.85;;;8.80;99.90;;;;;;5107792;27;20100;-80
2022/09/27 03:17:35;;;;;;;4.38;0.60;;;8.80;99.90;;;;;;5084971;27;20043;-81
2022/09/27 03:20:01;;;;;;;2.30;0.57;;;8.80;99.90;;;;;;5127653;27;20506;-80
2022/09/27 03:22:27;;;;;;;5.97;0.68;;;8.90;99.90;;;;;;5115219;27;20568;-80
2022/09/27 03:24:53;;;;;;;2.00;0.60;;;8.90;99.90;;;;;;5081828;27;20142;-80
2022/09/27 03:27:18;;;;;;;6.40;0.95;;;8.90;99.90;;;;;;5099095;27;20044;-81
2022/09/27 03:29:44;;;;;;;3.80;0.47;;;8.90;99.90;;;;;;5100525;27;20043;-81
2022/09/27 03:32:10;;;;;;;6.55;0.60;;;8.80;99.90;;;;;;5097959;27;20047;-80
2022/09/27 03:34:35;;;;;;;4.80;0.55;;;8.80;99.90;;;;;;5129454;27;20039;-81
2022/09/27 03:37:01;;;;;;;2.88;0.50;;;8.70;99.90;;;;;;5103479;28;20061;-80
2022/09/27 03:39:27;;;;;;;4.07;0.50;;;8.70;99.90;;;;;;5100379;28;20043;-81
2022/09/27 03:41:52;;;;;;;5.82;0.60;;;8.60;99.90;;;;;;5080895;28;20071;-80
2022/09/27 03:44:18;;;;;;;5.50;0.65;;;8.50;99.90;;;;;;5081354;28;20054;-81
2022/09/27 03:46:44;;;;;;;3.47;0.60;;;8.50;99.90;;;;;;5129269;27;20043;-81
2022/09/27 03:49:09;;;;;;;8.38;0.80;;;8.40;99.90;;;;;;5113987;27;20484;-81
2022/09/27 03:51:35;;;;;;;3.78;0.90;;;8.40;99.90;;;;;;5116317;27;20069;-81
2022/09/27 03:54:01;;;;;;;2.55;0.40;;;8.40;99.90;;;;;;5112414;27;20043;-81
2022/09/27 03:56:27;;;;;;;4.50;0.55;;;8.40;99.90;;;;;;5122963;27;20040;-81
2022/09/27 03:58:53;;;;;;;6.80;0.50;;;8.40;99.90;;;;;;5127037;27;20079;-80
2022/09/27 04:01:19;;;;;;;8.38;0.80;;;8.50;99.90;;;;;;5117780;27;20101;-80
2022/09/27 04:03:45;;;;;;;3.92;0.90;;;8.50;99.90;;;;;;5091897;28;20070;-79
2022/09/27 04:06:10;;;;;;;5.45;0.70;;;8.50;99.90;;;;;;5123062;27;20075;-79
2022/09/27 04:08:36;;;;;;;5.40;0.68;;;8.60;99.90;;;;;;5092443;27;20480;-79
2022/09/27 04:11:02;;;;;;;7.85;1.20;;;8.60;99.90;;;;;;5124627;27;20045;-79
2022/09/27 04:13:28;;;;;;;5.90;0.77;;;8.60;99.90;;;;;;5115192;27;20062;-79
2022/09/27 04:15:54;;;;;;;5.88;1.10;;;8.70;99.90;;;;;;5096429;28;20484;-79
2022/09/27 04:18:20;;;;;;;5.80;0.98;;;8.80;99.90;;;;;;5124479;27;20075;-80
2022/09/27 04:20:46;;;;;;;5.88;0.93;;;8.70;99.90;;;;;;5104008;28;20047;-80
2022/09/27 04:23:11;;;;;;;4.75;1.05;;;8.60;99.90;;;;;;5113393;27;20090;-80
2022/09/27 04:25:38;;;;;;;3.60;0.70;;;8.70;99.90;;;;;;5112998;27;20039;-81
2022/09/27 04:28:05;;;;;;;4.80;0.80;;;8.60;99.90;;;;;;5110842;27;20043;-81
2022/09/27 04:30:31;;;;;;;7.82;0.80;;;8.70;99.90;;;;;;5126361;27;20548;-82
2022/09/27 04:32:57;;;;;;;6.40;0.77;;;8.60;99.90;;;;;;5116014;27;20040;-80
2022/09/27 04:38:06;;;;;;;6.38;0.90;;;8.60;99.90;;;;;;5117390;28;20200;-81
2022/09/27 04:40:35;;;;;;;4.78;0.80;;;8.60;99.90;;;;;;5111938;28;20806;-82
2022/09/27 04:43:03;;;;;;;8.07;0.77;;;8.60;99.90;;;;;;5092678;28;20456;-80
2022/09/27 04:45:29;;;;;;;2.53;0.55;;;8.50;99.90;;;;;;5113578;28;20047;-80
2022/09/27 04:47:55;;;;;;;5.90;0.95;;;8.50;99.90;;;;;;5111831;28;20139;-81
2022/09/27 04:50:21;;;;;;;5.60;0.90;;;8.50;99.90;;;;;;5094485;28;20126;-81
2022/09/27 04:52:53;;;;;;;7.45;0.98;;;8.50;99.90;;;;;;5093862;28;20049;-82
2022/09/27 04:55:20;;;;;;;2.70;0.63;;;8.50;99.90;;;;;;5114023;28;20425;-81
2022/09/27 04:57:46;;;;;;;5.95;1.00;;;8.50;99.90;;;;;;5113189;28;20047;-80
2022/09/27 05:00:14;;;;;;;5.70;1.33;;;8.50;99.90;;;;;;5111686;28;20046;-80
2022/09/27 05:02:41;;;;;;;7.18;1.08;;;8.50;99.90;;;;;;5109049;28;20084;-81
2022/09/27 05:05:07;;;;;;;5.35;0.82;;;8.50;99.90;;;;;;5111269;28;20079;-80
2022/09/27 05:07:33;;;;;;;3.40;0.57;;;8.40;99.90;;;;;;5097158;28;20468;-81
2022/09/27 05:09:59;;;;;;;4.05;0.60;;;8.40;99.90;;;;;;5096649;28;20118;-81
2022/09/27 05:12:25;;;;;;;8.73;0.80;;;8.40;99.90;;;;;;5111077;27;20130;-82
2022/09/27 05:14:52;;;;;;;7.55;1.00;;;8.30;99.90;;;;;;5106046;28;20117;-82
2022/09/27 05:17:20;;;;;;;7.38;0.80;;;8.30;99.90;;;;;;5130196;27;20031;-81
2022/09/27 05:19:46;;;;;;;5.30;0.77;;;8.30;99.90;;;;;;5131725;27;20039;-82
2022/09/27 05:22:11;;;;;;;3.78;0.77;;;8.20;99.90;;;;;;5109752;27;20092;-82
2022/09/27 05:24:38;;;;;;;7.50;0.98;;;8.20;99.90;;;;;;5065770;27;20054;-82
2022/09/27 05:27:07;;;;;;;7.30;0.98;;;8.10;99.90;;;;;;5100274;27;20054;-81
2022/09/27 05:29:34;;;;;;;4.85;1.17;;;8.10;99.90;;;;;;5124362;27;20131;-81
2022/09/27 05:32:00;;;;;;;8.75;1.38;;;8.10;99.90;;;;;;5117830;27;20064;-81
2022/09/27 05:34:26;;;;;;;8.30;2.10;;;8.30;99.90;;;;;;5118404;27;20058;-82
2022/09/27 05:36:52;;;;;;;9.35;2.08;;;8.10;99.90;;;;;;5118213;27;20138;-80
2022/09/27 05:39:18;;;;;;;6.55;2.42;;;8.10;99.90;;;;;;5123802;27;20096;-81
2022/09/27 05:41:45;;;;;;;4.18;1.30;;;8.10;99.90;;;;;;5134044;27;20038;-81
2022/09/27 05:44:12;;;;;;;6.47;1.10;;;8.10;99.90;;;;;;5135777;27;20050;-81
2022/09/27 05:46:38;;;;;;;7.03;0.95;;;8.00;99.90;;;;;;5127219;27;20041;-79
2022/09/27 05:49:04;;;;;;;3.65;0.88;;;8.00;99.90;;;;;;5094692;27;20100;-81
2022/09/27 05:51:30;;;;;;;6.53;1.45;;;8.00;99.90;;;;;;5118349;27;20047;-81
2022/09/27 05:53:56;;;;;;;6.50;1.55;;;8.00;99.90;;;;;;5133975;27;20043;-81
2022/09/27 05:56:21;;;;;;;2.90;0.98;;;8.00;99.90;;;;;;5111258;27;20093;-81
2022/09/27 05:58:47;;;;;;;5.40;0.80;;;8.10;99.90;;;;;;5109493;27;20122;-81
2022/09/27 06:01:13;;;;;;;5.53;1.13;;;8.10;99.90;;;;;;5113669;27;20247;-81
2022/09/27 06:03:39;;;;;;;5.20;0.85;;;8.10;99.90;;;;;;5118509;27;20046;-81
2022/09/27 06:06:06;;;;;;;5.55;0.90;;;8.20;99.90;;;;;;5134738;27;20038;-81
2022/09/27 06:08:33;;;;;;;4.20;0.95;;;8.10;99.90;;;;;;5101861;27;20087;-81
2022/09/27 06:11:08;;;;;;;7.85;1.15;;;8.10;99.90;;;;;;5134704;27;20093;-81
2022/09/27 06:13:38;;;;;;;6.53;1.35;;;8.20;99.90;;;;;;5121428;27;20415;-81
2022/09/27 06:16:05;;;;;;;6.05;1.10;;;8.10;99.90;;;;;;5135019;27;20114;-81
2022/09/27 06:18:31;;;;;;;8.95;1.08;;;8.10;99.90;;;;;;5134171;27;20038;-81
2022/09/27 06:21:01;;;;;;;11.63;1.20;;;8.00;99.90;;;;;;5117747;27;20065;-81
2022/09/27 06:23:28;;;;;;;10.23;0.95;;;8.10;99.90;;;;;;5117837;27;20107;-81
2022/09/27 06:25:54;;;;;;;7.75;1.00;;;8.00;99.90;;;;;;5099537;27;20424;-81
2022/09/27 06:28:21;;;;;;;6.70;1.27;;;8.00;99.90;;;;;;5134842;27;20086;-81
2022/09/27 06:30:48;;;;;;;4.05;0.70;;;8.30;99.90;;;;;;5117825;27;20085;-81
2022/09/27 06:33:16;;;;;;;4.68;0.90;;;8.20;99.90;;;;;;5132152;27;20080;-80
2022/09/27 06:35:44;;;;;;;4.93;1.00;;;8.30;99.90;;;;;;5117514;27;20050;-80
2022/09/27 06:38:15;;;;;;;6.63;1.08;;;8.40;99.90;;;;;;5103421;27;20051;-80
2022/09/27 06:40:44;;;;;;;8.82;1.10;;;8.30;99.90;;;;;;5115655;27;20547;-80
2022/09/27 06:43:15;;;;;;;3.75;0.95;;;8.30;99.90;;;;;;5114764;27;20043;-81
2022/09/27 06:45:41;;;;;;;7.50;1.10;;;8.40;99.90;;;;;;5106710;27;20118;-79
2022/09/27 06:48:11;;;;;;;7.22;1.25;;;8.40;99.90;;;;;;5149933;27;20133;-81
2022/09/27 06:50:38;;;;;;;4.75;1.08;;;8.50;99.90;;;;;;5106310;27;20058;-80
2022/09/27 06:53:05;;;;;;;7.70;1.00;;;8.60;99.90;;;;;;5128324;27;20043;-80
2022/09/27 06:55:31;;;;;;;13.48;1.67;;;8.70;99.90;;;;;;5110858;27;20039;-80
2022/09/27 07:00:45;;;;;;;6.43;1.35;;;8.80;99.90;;;;;;5134771;27;20095;-80
2022/09/27 07:03:13;;;;;;;9.27;2.25;;;9.00;99.90;;;;;;5096905;27;20047;-80
2022/09/27 07:05:41;;;;;;;4.63;0.93;;;9.30;99.90;;;;;;5109489;27;20147;-80
2022/09/27 07:08:10;;;;;;;5.45;1.05;;;9.40;99.90;;;;;;5133130;27;20031;-80
2022/09/27 07:10:37;;;;;;;8.32;1.75;;;9.60;99.90;;;;;;5123661;27;20047;-80
2022/09/27 07:13:08;;;;;;;7.72;1.45;;;9.70;99.90;;;;;;5133659;27;20058;-80
2022/09/27 07:15:39;;;;;;;2.80;0.93;;;9.70;99.90;;;;;;5134132;27;20121;-80
2022/09/27 07:18:07;;;;;;;7.85;1.10;;;9.80;99.90;;;;;;5116491;27;20130;-80
2022/09/27 07:20:36;;;;;;;5.22;1.92;;;9.60;99.90;;;;;;5122122;27;20125;-80
2022/09/27 07:23:03;;;;;;;3.08;1.02;;;9.60;99.90;;;;;;5108024;27;20045;-80
2022/09/27 07:25:29;;;;;;;7.20;1.75;;;9.50;99.90;;;;;;5096740;27;20042;-80
2022/09/27 07:28:03;;;;;;;4.22;1.17;;;9.50;99.90;;;;;;5133722;27;20387;-80
2022/09/27 07:30:29;;;;;;;8.98;2.78;;;9.50;99.90;;;;;;5120453;27;20055;-80
2022/09/27 07:33:03;;;;;;;3.38;1.83;;;9.70;99.90;;;;;;5116582;27;20046;-81
2022/09/27 07:35:29;;;;;;;9.13;2.53;;;9.90;99.90;;;;;;5133783;27;20043;-80
2022/09/27 07:37:57;;;;;;;9.65;2.30;;;10.00;99.90;;;;;;5098212;27;20087;-80
2022/09/27 07:40:22;;;;;;;6.00;1.55;;;10.00;99.90;;;;;;5100339;27;20540;-80
2022/09/27 07:42:54;;;;;;;5.95;1.02;;;9.90;99.90;;;;;;5129376;27;20148;-80
2022/09/27 07:45:21;;;;;;;3.67;0.77;;;9.70;99.90;;;;;;5133178;27;20050;-80
2022/09/27 07:47:47;;;;;;;4.45;0.82;;;9.70;99.90;;;;;;5133137;27;20058;-80
2022/09/27 07:50:13;;;;;;;7.55;1.38;;;9.60;99.90;;;;;;5123488;27;20066;-80
2022/09/27 07:52:44;;;;;;;7.30;0.98;;;9.60;99.90;;;;;;5103137;27;20544;-80
2022/09/27 07:55:12;;;;;;;6.05;1.27;;;9.50;99.90;;;;;;5132566;27;20506;-80
2022/09/27 07:57:39;;;;;;;5.57;1.42;;;9.60;99.90;;;;;;5133510;27;20043;-80
2022/09/27 08:00:10;;;;;;;3.05;0.80;;;9.50;99.90;;;;;;5111884;27;20095;-81
2022/09/27 08:02:35;;;;;;;6.65;1.35;;;9.60;99.90;;;;;;5133018;27;20050;-79
2022/09/27 08:05:02;;;;;;;5.20;1.45;;;9.80;99.90;;;;;;5132955;27;20041;-80
2022/09/27 08:07:28;;;;;;;9.38;1.35;;;10.10;99.90;;;;;;5115597;27;20510;-80
2022/09/27 08:09:54;;;;;;;4.90;1.20;;;10.20;99.90;;;;;;5095676;27;20484;-80
2022/09/27 08:12:21;;;;;;;2.45;0.90;;;10.40;99.90;;;;;;5111724;27;20049;-80
2022/09/27 08:14:50;;;;;;;4.35;0.90;;;10.60;99.90;;;;;;5116103;27;20051;-81
2022/09/27 08:17:18;;;;;;;2.28;0.80;;;10.70;99.90;;;;;;5097264;27;20049;-80
2022/09/27 08:19:44;;;;;;;5.05;0.73;;;10.80;99.90;;;;;;5103860;27;20093;-80
2022/09/27 08:22:12;;;;;;;3.75;0.90;;;10.90;99.90;;;;;;5108389;27;20504;-80
2022/09/27 08:24:39;;;;;;;5.55;1.10;;;10.90;99.90;;;;;;5124612;27;20074;-80
2022/09/27 08:27:06;;;;;;;2.95;0.60;;;11.00;99.90;;;;;;5114803;27;20507;-80
2022/09/27 08:29:35;;;;;;;5.65;0.95;;;11.00;99.90;;;;;;5132977;27;20552;-80
2022/09/27 08:32:01;;;;;;;3.22;1.00;;;11.00;99.90;;;;;;5102197;27;20039;-80
2022/09/27 08:34:28;;;;;;;2.65;0.73;;;11.10;99.90;;;;;;5095272;27;20065;-80
2022/09/27 08:36:54;;;;;;;3.95;1.10;;;11.30;99.90;;;;;;5132722;27;20050;-80
2022/09/27 08:39:21;;;;;;;4.82;1.67;;;11.40;99.90;;;;;;5114948;27;20089;-80
2022/09/27 08:42:16;;;;;;;2.80;1.00;;;11.50;99.90;;;;;;5108708;28;20051;-80
2022/09/27 08:45:12;;;;;;;4.38;0.75;;;11.70;99.90;;;;;;5117241;28;20062;-79
2022/09/27 08:47:46;;;;;;;2.45;1.00;;;11.80;99.90;;;;;;5127728;27;20054;-81
2022/09/27 08:50:40;;;;;;;2.53;0.95;;;11.70;99.90;;;;;;5115400;27;20042;-80
2022/09/27 08:53:21;;;;;;;2.45;0.73;;;11.60;99.90;;;;;;5132192;27;20102;-80
2022/09/27 08:55:53;;;;;;;5.72;1.25;;;11.50;99.90;;;;;;5122467;28;20043;-79
2022/09/27 08:58:50;;;;;;;4.10;0.30;;;11.40;99.90;;;;;;5130323;27;20053;-80
2022/09/27 09:01:17;;;;;;;3.38;0.40;;;11.30;99.90;;;;;;5105325;27;20127;-80
2022/09/27 09:03:54;;;;;;;2.38;0.50;;;11.50;99.90;;;;;;5137026;27;20062;-80
2022/09/27 09:06:40;;;;;;;2.63;0.82;;;11.70;99.90;;;;;;5101628;27;20178;-80
2022/09/27 09:09:27;;;;;;;2.03;0.50;;;11.80;99.90;;;;;;5132632;27;20487;-80
2022/09/27 09:14:51;;;;;;;1.40;0.20;;;11.60;99.90;;;;;;5126663;27;20010;-79
2022/09/27 09:17:26;;;;;;;1.85;0.30;;;11.50;99.90;;;;;;5118312;27;20501;-80
2022/09/27 09:20:21;;;;;;;4.10;0.85;;;11.50;99.90;;;;;;5136737;27;20057;-80
2022/09/27 09:22:47;;;;;;;2.15;0.88;;;11.50;99.90;;;;;;5097151;27;20048;-80
2022/09/27 09:25:27;;;;;;;3.33;1.27;;;11.50;99.90;;;;;;5101653;27;20090;-81
2022/09/27 09:28:02;;;;;;;3.17;0.52;;;11.60;99.90;;;;;;5136449;27;20054;-80
2022/09/27 09:30:43;;;;;;;1.75;0.63;;;11.70;99.90;;;;;;5134962;27;20046;-80
2022/09/27 09:33:22;;;;;;;1.48;0.32;;;11.50;99.90;;;;;;5136226;27;20043;-80
2022/09/27 09:36:00;;;;;;;1.48;0.40;;;11.50;99.90;;;;;;5125379;27;20083;-80
2022/09/27 09:38:40;;;;;;;4.55;1.10;;;11.60;99.90;;;;;;5112069;27;20043;-80
2022/09/27 09:41:27;;;;;;;4.88;0.65;;;11.90;99.90;;;;;;5134005;27;20053;-80
2022/09/27 09:44:17;;;;;;;2.88;0.60;;;12.10;99.90;;;;;;5136439;27;20391;-80
2022/09/27 09:46:46;;;;;;;2.92;0.35;;;12.20;99.90;;;;;;5098519;27;20047;-80
2022/09/27 09:49:46;;;;;;;5.82;0.75;;;12.30;99.90;;;;;;5135809;27;20043;-80
2022/09/27 09:52:17;;;;;;;2.05;0.43;;;12.40;99.90;;;;;;5135661;27;20043;-80
2022/09/27 09:54:43;;;;;;;4.95;0.70;;;12.60;99.90;;;;;;5134705;27;20054;-80
2022/09/27 09:57:15;;;;;;;6.57;0.68;;;12.80;99.90;;;;;;5098077;27;20386;-81
2022/09/27 09:59:58;;;;;;;5.57;0.63;;;13.00;99.90;;;;;;5131600;27;20087;-80
2022/09/27 10:02:32;;;;;;;6.35;0.98;;;13.10;99.90;;;;;;5105560;27;20058;-80
2022/09/27 10:04:59;;;;;;;6.97;0.82;;;13.00;99.90;;;;;;5131869;27;20046;-80
2022/09/27 10:07:27;;;;;;;3.53;0.50;;;12.80;99.90;;;;;;5113835;27;20054;-80
2022/09/27 10:09:58;;;;;;;6.32;1.10;;;12.80;99.90;;;;;;5118460;27;20057;-80
2022/09/27 10:12:24;;;;;;;4.78;0.80;;;12.90;99.90;;;;;;5133027;27;20063;-80
2022/09/27 10:14:52;;;;;;;3.95;0.50;;;12.80;99.90;;;;;;5098060;27;20062;-80
2022/09/27 10:17:21;;;;;;;9.82;0.65;;;12.80;99.90;;;;;;5132388;27;20697;-82
2022/09/27 10:19:51;;;;;;;2.85;0.47;;;12.80;99.90;;;;;;5135202;27;20051;-80
2022/09/27 10:22:28;;;;;;;2.85;0.60;;;13.00;99.90;;;;;;5112852;27;20104;-80
2022/09/27 10:25:01;;;;;;;1.90;0.20;;;12.90;99.90;;;;;;5128822;27;20055;-80
2022/09/27 10:27:36;;;;;;;1.38;0.22;;;12.60;99.90;;;;;;5134525;27;20043;-80
2022/09/27 10:30:03;;;;;;;1.67;0.30;;;12.10;99.90;;;;;;5134436;27;20055;-80
2022/09/27 10:32:35;;;;;;;2.22;0.60;;;11.60;99.90;;;;;;5134125;27;20042;-80
2022/09/27 10:35:29;;;;;;;1.75;1.20;;;11.20;99.90;;;;;;5134919;27;20041;-80
2022/09/27 10:38:16;;;;;;;0.43;0.30;;;10.70;99.90;;;;;;5134737;27;20131;-79
2022/09/27 10:40:42;;;;;;;2.83;0.50;;;10.40;99.90;;;;;;5131328;27;20043;-78
2022/09/27 10:43:28;;;;;;;3.65;1.92;;;10.20;99.90;;;;;;5132910;27;20384;-78
2022/09/27 10:46:05;;;;;;;2.75;1.52;;;10.00;99.90;;;;;;5133927;27;20506;-78
2022/09/27 10:48:30;;;;;;;3.50;1.20;;;9.80;99.90;;;;;;5116376;27;20049;-78
2022/09/27 10:51:05;;;;;;;1.30;0.65;;;9.70;99.90;;;;;;5134631;27;20124;-78
2022/09/27 10:53:33;;;;;;;2.03;0.60;;;9.80;99.90;;;;;;5134038;27;20052;-79
2022/09/27 10:55:59;;;;;;;2.55;0.30;;;9.80;99.90;;;;;;5118064;27;20054;-79
2022/09/27 10:58:35;;;;;;;2.50;0.45;;;9.80;99.90;;;;;;5133364;27;20122;-80
2022/09/27 11:01:07;;;;;;;3.38;1.30;;;10.00;99.90;;;;;;5151987;27;20043;-80
2022/09/27 11:03:38;;;;;;;5.60;1.83;;;10.20;99.90;;;;;;5122287;27;20058;-80
2022/09/27 11:06:22;;;;;;;6.80;2.50;;;10.30;99.90;;;;;;5117110;27;20078;-79
2022/09/27 11:08:50;;;;;;;6.00;4.55;;;10.60;99.90;;;;;;5132821;27;20043;-80
2022/09/27 11:11:18;;;;;;;2.60;2.40;;;10.70;99.90;;;;;;5113890;27;20039;-80
2022/09/27 11:14:03;;;;;;;2.30;1.10;;;10.80;99.90;;;;;;5145158;27;20062;-80
2022/09/27 11:16:55;;;;;;;1.98;1.27;;;10.80;99.90;;;;;;5133779;27;20042;-80
2022/09/27 11:19:35;;;;;;;4.40;0.70;;;10.80;99.90;;;;;;5121915;27;20050;-80
2022/09/27 11:22:15;;;;;;;3.38;0.82;;;10.80;99.90;;;;;;5133730;27;20063;-80
2022/09/27 11:25:11;;;;;;;3.55;0.80;;;10.60;99.90;;;;;;5121113;27;20050;-80
2022/09/27 11:28:02;;;;;;;3.65;1.80;;;10.20;99.90;;;;;;5137186;27;20081;-81
2022/09/27 11:30:54;;;;;;;6.68;4.57;;;10.10;99.90;;;;;;5120163;27;20480;-81
2022/09/27 11:33:34;;;;;;;3.00;2.08;;;10.10;99.90;;;;;;5134028;27;20121;-81
2022/09/27 11:36:12;;;;;;;2.45;0.90;;;10.20;99.90;;;;;;5134086;27;20111;-81
2022/09/27 11:38:57;;;;;;;1.27;0.55;;;10.50;99.90;;;;;;5133105;27;20137;-81
2022/09/27 11:41:56;;;;;;;2.22;0.65;;;10.80;99.90;;;;;;5119781;27;20115;-81
2022/09/27 11:44:33;;;;;;;2.38;1.65;;;11.90;99.90;;;;;;5116492;27;20039;-82
2022/09/27 11:47:29;;;;;;;0.95;0.40;;;12.70;99.90;;;;;;5133337;27;20074;-81
2022/09/27 11:50:17;;;;;;;1.38;0.28;;;13.20;99.90;;;;;;5041619;27;20060;-81
2022/09/27 11:53:14;;;;;;;1.27;0.25;;;13.40;99.90;;;;;;5117182;27;20082;-82
2022/09/27 11:56:05;;;;;;;2.80;1.45;;;14.00;99.90;;;;;;5115743;27;20051;-80
2022/09/27 11:59:00;;;;;;;1.50;0.70;;;14.50;99.90;;;;;;5102913;27;20057;-82
2022/09/27 12:02:05;;;;;;;4.15;1.23;;;15.10;99.90;;;;;;5132664;27;20058;-81
2022/09/27 12:04:55;;;;;;;0.90;0.30;;;15.00;99.90;;;;;;5054745;27;20054;-82
2022/09/27 12:07:52;;;;;;;3.92;1.42;;;14.60;99.90;;;;;;5104041;27;20051;-81
2022/09/27 12:10:20;;;;;;;1.58;0.60;;;15.10;99.90;;;;;;5133419;27;20042;-81
2022/09/27 12:12:52;;;;;;;1.80;0.70;;;15.60;99.90;;;;;;5108635;27;20058;-82
2022/09/27 12:15:41;;;;;;;1.23;0.20;;;15.90;99.90;;;;;;5096902;27;20055;-82
2022/09/27 12:18:24;;;;;;;1.45;0.25;;;16.30;99.90;;;;;;5133423;27;20042;-81
2022/09/27 12:20:51;;;;;;;1.83;0.30;;;15.70;99.90;;;;;;5116470;27;20066;-81
2022/09/27 12:23:46;;;;;;;1.70;0.60;;;14.80;99.90;;;;;;5127193;27;20386;-81
2022/09/27 12:26:24;;;;;;;4.82;1.48;;;14.20;99.90;;;;;;5128431;27;20706;-81
2022/09/27 12:29:16;;;;;;;3.92;0.30;;;13.90;99.90;;;;;;5112320;27;20062;-81
2022/09/27 12:32:06;;;;;;;0.82;0.40;;;13.30;99.90;;;;;;5112112;27;20039;-81
2022/09/27 12:34:32;;;;;;;5.38;1.73;;;12.80;99.90;;;;;;5131353;27;20050;-81
2022/09/27 12:37:19;;;;;;;3.33;0.50;;;12.50;99.90;;;;;;5115394;27;20035;-81
2022/09/27 12:40:33;;;;;;;3.58;0.98;;;12.40;99.90;;;;;;5115115;27;20050;-81
2022/09/27 12:43:13;;;;;;;5.30;0.98;;;12.20;99.90;;;;;;5029867;28;20272;-82
2022/09/27 12:45:54;;;;;;;5.18;1.20;;;11.90;99.90;;;;;;5129852;27;20047;-82
2022/09/27 12:48:43;;;;;;;2.40;0.40;;;11.60;99.90;;;;;;5119843;27;20046;-82
2022/09/27 12:51:16;;;;;;;2.60;0.45;;;11.30;99.90;;;;;;5120249;27;20137;-81
2022/09/27 12:54:19;;;;;;;3.67;0.80;;;10.90;99.90;;;;;;5132312;27;20118;-80
2022/09/27 12:57:05;;;;;;;2.53;0.63;;;10.70;99.90;;;;;;5101309;27;20038;-81
2022/09/27 12:59:37;;;;;;;6.75;0.98;;;10.50;99.90;;;;;;5132624;27;20125;-81
2022/09/27 13:02:15;;;;;;;3.03;0.70;;;10.30;99.90;;;;;;5131262;27;20074;-80
2022/09/27 13:05:13;;;;;;;1.27;0.65;;;10.30;99.90;;;;;;5114885;27;20049;-80
2022/09/27 13:07:58;;;;;;;7.53;2.10;;;10.20;99.90;;;;;;5119932;27;20047;-80
2022/09/27 13:10:59;;;;;;;3.67;1.70;;;10.10;99.90;;;;;;5101169;27;20049;-80
2022/09/27 13:13:28;;;;;;;5.47;2.38;;;10.00;99.90;;;;;;5120036;28;20172;-80
2022/09/27 13:16:00;;;;;;;18.33;8.15;;;10.10;99.90;;;;;;5125129;28;20051;-81
2022/09/27 13:18:34;;;;;;;1.10;0.80;;;10.10;99.90;;;;;;5111987;27;20492;-80
2022/09/27 13:21:09;;;;;;;3.72;1.60;;;10.10;99.90;;;;;;5098875;28;20080;-81
2022/09/27 13:23:38;;;;;;;5.00;1.60;;;10.10;99.90;;;;;;5146966;27;20035;-80
2022/09/27 13:26:22;;;;;;;11.52;7.78;;;10.20;99.90;;;;;;5114995;27;20038;-80
2022/09/27 13:28:51;;;;;;;1.85;1.30;;;10.30;99.90;;;;;;5124917;28;20051;-80
2022/09/27 13:31:58;;;;;;;2.85;1.10;;;10.50;99.90;;;;;;5112716;27;20096;-81
2022/09/27 13:34:37;;;;;;;2.90;0.88;;;10.70;99.90;;;;;;5132326;27;20055;-80